Time;durP1;ratioP1;P1;durP2;ratioP2;P2;SDS_P1;SDS_P2;PMS_P1;PMS_P2;Temp;Humidity;BMP_temperature;BMP_pressure;BME280_temperature;BME280_humidity;BME280_pressure;Samples;Min_cycle;Max_cycle;Signal;HPM_P1;HPM_P2
2022/04/02 10:20:14;;;;;;;35.88;10.93;;;;;;;26.55;28.22;100468.16;2088074;28;20469;-81
2022/04/02 10:21:18;;;;;;;34.03;10.07;;;;;;;26.45;28.08;100452.34;2081595;28;20045;-83
2022/04/02 10:22:41;;;;;;;34.60;9.40;;;;;;;27.39;47.06;100481.66;2026046;28;20061;-75
2022/04/02 10:29:42;;;;;;;29.08;9.40;;;;;;;23.81;29.67;100454.31;2090346;27;20472;-63
2022/04/02 10:30:52;;;;;;;30.73;8.57;;;;;;;23.51;29.85;100469.88;2076720;28;20047;-62
2022/04/02 10:32:08;;;;;;;29.95;8.63;;;;;;;23.26;30.54;100507.91;2067967;28;20045;-59
2022/04/02 10:33:26;;;;;;;30.08;8.10;;;;;;;23.06;30.99;100471.50;2072539;28;20049;-60
2022/04/02 10:35:20;;;;;;;28.65;8.75;;;;;;;22.88;31.83;100476.63;2075966;28;20044;-63
2022/04/02 10:36:26;;;;;;;24.48;8.52;;;;;;;22.70;32.21;100465.34;2064506;28;20046;-60
2022/04/02 10:37:59;;;;;;;35.10;8.82;;;;;;;22.67;32.45;100477.03;2070463;28;20033;-62
2022/04/02 10:39:01;;;;;;;30.88;8.57;;;;;;;22.59;32.86;100480.78;2033637;28;20048;-60
2022/04/02 10:40:06;;;;;;;29.75;9.00;;;;;;;22.55;33.25;100471.72;2064949;28;20049;-60
2022/04/02 10:41:18;;;;;;;30.50;8.48;;;;;;;22.52;33.91;100497.09;2068473;28;20033;-60
2022/04/02 10:42:29;;;;;;;31.15;9.45;;;;;;;22.48;34.75;100485.25;2058428;28;20049;-60
2022/04/02 10:43:36;;;;;;;31.05;9.18;;;;;;;22.44;34.74;100466.81;2062307;28;20046;-63
2022/04/02 10:44:58;;;;;;;34.75;9.57;;;;;;;22.40;35.69;100471.41;2058266;28;20030;-63
2022/04/02 10:46:03;;;;;;;29.55;9.55;;;;;;;22.41;35.99;100485.91;2068470;28;20045;-62
2022/04/02 10:47:09;;;;;;;26.40;8.80;;;;;;;22.40;36.63;100471.41;2067769;28;20061;-62
2022/04/02 10:48:13;;;;;;;25.48;8.48;;;;;;;22.37;37.23;100482.31;2069558;28;20465;-62
2022/04/02 10:49:24;;;;;;;26.95;7.93;;;;;;;22.37;38.07;100485.84;2061114;28;20742;-63
2022/04/02 10:50:28;;;;;;;27.73;7.97;;;;;;;22.35;38.46;100490.09;2062534;28;20891;-61
2022/04/02 10:51:34;;;;;;;32.38;8.73;;;;;;;22.32;38.48;100491.63;2068958;28;20057;-63
2022/04/02 10:52:41;;;;;;;29.23;8.85;;;;;;;22.31;39.32;100470.06;2067031;28;20466;-64
2022/04/02 10:53:44;;;;;;;24.52;9.02;;;;;;;22.31;39.61;100475.53;2061297;28;20501;-63
2022/04/02 10:54:49;;;;;;;31.90;9.80;;;;;;;22.32;39.83;100488.88;2068195;28;20061;-64
2022/04/02 10:55:59;;;;;;;34.80;11.23;;;;;;;22.31;40.71;100483.75;2069661;28;20034;-63
2022/04/02 10:57:18;;;;;;;43.85;12.70;;;;;;;22.27;41.14;100475.47;2063039;28;20045;-63
2022/04/02 10:58:21;;;;;;;52.38;15.25;;;;;;;22.31;41.23;100489.22;2065231;28;20042;-63
2022/04/02 10:59:30;;;;;;;55.72;16.15;;;;;;;22.30;42.02;100482.16;2069419;28;20049;-63
2022/04/02 11:00:38;;;;;;;67.53;19.13;;;;;;;22.30;42.56;100484.91;2062425;28;20061;-63
2022/04/02 11:01:43;;;;;;;73.22;23.63;;;;;;;22.28;43.16;100493.47;2069613;28;20829;-63
2022/04/02 11:02:49;;;;;;;114.38;35.40;;;;;;;22.27;43.71;100491.09;2070665;28;20046;-63
2022/04/02 11:03:57;;;;;;;152.48;49.72;;;;;;;22.26;43.99;100495.78;2069525;28;20041;-63
2022/04/02 11:05:05;;;;;;;181.20;56.60;;;;;;;22.27;44.27;100486.41;2061814;28;20216;-62
2022/04/02 11:06:09;;;;;;;217.85;72.22;;;;;;;22.27;44.83;100496.59;2056646;28;20061;-63
2022/04/02 11:07:11;;;;;;;250.02;81.55;;;;;;;22.31;45.85;100481.78;2062187;28;20053;-62
2022/04/02 11:08:13;;;;;;;243.60;80.32;;;;;;;22.29;46.04;100489.59;2051550;28;20046;-63
2022/04/02 11:09:27;;;;;;;248.90;82.80;;;;;;;22.30;46.21;100473.97;2053314;28;20054;-63
2022/04/02 11:10:34;;;;;;;270.23;89.03;;;;;;;22.30;46.41;100482.97;2068955;28;20042;-63
2022/04/02 11:11:37;;;;;;;280.38;96.60;;;;;;;22.29;46.68;100488.78;2069663;28;20489;-63
2022/04/02 11:12:48;;;;;;;299.73;105.45;;;;;;;22.28;47.22;100477.03;2058754;28;20041;-63
2022/04/02 11:14:06;;;;;;;338.42;121.13;;;;;;;22.26;43.66;100484.03;2071571;28;20052;-62
2022/04/02 11:15:17;;;;;;;322.88;116.18;;;;;;;21.95;41.12;100482.97;2059569;28;20045;-60
2022/04/02 11:16:24;;;;;;;307.80;111.57;;;;;;;21.81;39.46;100485.38;2068721;28;20501;-60
2022/04/02 11:17:35;;;;;;;405.85;148.80;;;;;;;21.70;43.95;100502.34;2080743;28;20041;-64
2022/04/02 11:19:53;;;;;;;425.92;162.98;;;;;;;21.70;45.39;100479.66;2079876;28;20553;-62
2022/04/02 11:20:13;;;;;;;403.20;154.98;;;;;;;21.73;45.98;100473.47;2067462;28;20073;-62
2022/04/02 11:21:21;;;;;;;400.55;149.32;;;;;;;21.79;46.12;100454.84;2067646;28;20049;-64
2022/04/02 11:23:02;;;;;;;390.90;149.35;;;;;;;21.85;46.77;100481.56;2068146;28;20046;-63
2022/04/02 11:24:11;;;;;;;395.75;141.30;;;;;;;21.89;46.39;100490.66;2064767;28;20052;-62
2022/04/02 11:25:32;;;;;;;394.83;144.38;;;;;;;21.92;46.52;100464.50;2067573;28;20045;-63
2022/04/02 11:26:40;;;;;;;387.65;136.10;;;;;;;21.93;46.43;100472.34;2067390;28;20049;-62
2022/04/02 11:27:48;;;;;;;359.17;131.88;;;;;;;21.93;46.38;100477.84;2057478;28;20042;-62
2022/04/02 11:28:52;;;;;;;359.98;132.98;;;;;;;21.94;46.54;100482.19;2067641;28;20038;-60
2022/04/02 11:30:02;;;;;;;339.08;124.75;;;;;;;21.96;46.15;100466.16;2066698;28;20489;-63
2022/04/02 11:31:05;;;;;;;341.83;127.13;;;;;;;21.96;46.36;100479.06;2068238;28;20033;-62
2022/04/02 11:32:11;;;;;;;316.95;115.75;;;;;;;21.98;45.79;100474.81;2067293;28;20564;-62
2022/04/02 11:33:24;;;;;;;305.88;112.32;;;;;;;22.00;45.81;100471.72;2067565;28;20057;-63
2022/04/02 11:34:28;;;;;;;299.77;112.80;;;;;;;21.99;45.46;100487.34;2058894;28;20532;-65
2022/04/02 11:35:39;;;;;;;280.90;106.45;;;;;;;22.01;45.45;100478.00;2065213;28;20410;-64
2022/04/02 11:36:47;;;;;;;277.10;103.45;;;;;;;22.02;45.13;100479.59;2066612;28;20033;-64
2022/04/02 11:38:14;;;;;;;253.80;98.25;;;;;;;22.02;44.45;100474.09;2076334;28;20640;-63
2022/04/02 11:39:29;;;;;;;250.60;94.90;;;;;;;22.01;44.06;100478.00;2065787;28;20077;-63
2022/04/02 11:40:34;;;;;;;246.13;84.85;;;;;;;21.99;43.66;100454.50;2061709;28;20840;-62
2022/04/02 11:41:46;;;;;;;225.52;85.97;;;;;;;21.97;43.57;100448.59;2061513;28;20046;-63
2022/04/02 11:42:48;;;;;;;210.90;80.13;;;;;;;21.96;42.46;100465.38;2050601;28;20044;-62
2022/04/02 11:54:25;;;;;;;2.65;1.60;;;;;;;10.39;29.09;100478.00;2092395;27;20419;-71
2022/04/02 11:55:29;;;;;;;4.15;1.60;;;;;;;10.27;29.99;100497.16;2066045;28;20049;-70
2022/04/02 11:56:46;;;;;;;6.05;1.73;;;;;;;10.03;29.93;100488.13;2068110;28;20052;-70
2022/04/02 11:58:21;;;;;;;2.97;1.50;;;;;;;9.60;30.36;100490.44;2087868;28;20049;-71
2022/04/02 11:59:24;;;;;;;3.40;1.40;;;;;;;9.28;30.72;100467.44;2070281;28;20057;-70
2022/04/02 12:00:27;;;;;;;4.68;1.92;;;;;;;8.96;31.27;100503.44;2068793;28;20045;-73
2022/04/02 12:01:49;;;;;;;1.98;1.23;;;;;;;8.64;31.77;100484.94;2067203;28;20041;-71
2022/04/02 12:02:54;;;;;;;3.03;1.90;;;;;;;8.77;32.09;100497.00;2091995;28;20047;-70
2022/04/02 12:04:15;;;;;;;3.35;1.80;;;;;;;8.78;32.09;100487.88;2086829;28;20275;-72
2022/04/02 12:05:20;;;;;;;2.90;1.83;;;;;;;8.52;32.08;100482.50;2080271;28;20290;-71
2022/04/02 12:06:38;;;;;;;4.25;2.40;;;;;;;8.26;32.57;100489.66;2080037;28;21320;-71
2022/04/02 12:07:49;;;;;;;4.05;1.95;;;;;;;8.35;32.67;100495.28;2075725;28;20276;-73
2022/04/02 12:08:54;;;;;;;4.75;1.92;;;;;;;8.34;32.97;100489.13;2080676;28;21064;-70
2022/04/02 12:09:58;;;;;;;6.88;2.88;;;;;;;8.28;33.37;100498.22;2080229;28;20287;-74
2022/04/02 12:11:03;;;;;;;3.58;1.70;;;;;;;8.07;32.64;100484.00;2080942;28;20287;-72
2022/04/02 12:12:06;;;;;;;3.95;1.52;;;;;;;7.87;32.62;100497.28;2067623;28;21118;-75
2022/04/02 12:13:12;;;;;;;4.85;1.60;;;;;;;7.89;32.91;100495.19;2057523;28;20777;-75
2022/04/02 12:14:38;;;;;;;6.55;1.33;;;;;;;7.96;33.29;100501.09;2081404;28;20299;-74
2022/04/02 12:16:13;;;;;;;2.30;1.50;;;;;;;7.85;33.22;100478.03;2075786;28;20640;-73
2022/04/02 12:17:17;;;;;;;2.97;1.50;;;;;;;7.66;33.76;100507.13;2074020;28;20302;-75
2022/04/02 12:18:20;;;;;;;3.95;1.50;;;;;;;7.73;34.09;100490.84;2075012;28;20033;-73
2022/04/02 12:19:44;;;;;;;2.20;1.23;;;;;;;7.59;34.01;100448.47;2068680;28;20811;-73
2022/04/02 12:20:47;;;;;;;2.60;1.45;;;;;;;7.47;34.65;100482.69;2071190;28;20275;-73
2022/04/02 12:21:52;;;;;;;4.22;1.52;;;;;;;7.54;35.04;100483.25;2073085;28;20268;-73
2022/04/02 12:23:08;;;;;;;2.80;1.50;;;;;;;7.72;34.86;100490.00;2065155;28;20296;-72
2022/04/02 12:24:12;;;;;;;3.88;1.63;;;;;;;7.80;34.57;100513.59;2067280;28;20285;-73
2022/04/02 12:25:20;;;;;;;1.80;1.13;;;;;;;7.65;33.89;100479.53;2084600;28;20294;-73
2022/04/02 12:26:25;;;;;;;2.38;1.23;;;;;;;7.51;33.56;100486.44;2082266;28;20297;-72
2022/04/02 12:27:32;;;;;;;5.85;1.25;;;;;;;7.56;33.54;100478.41;2081094;28;20266;-72
2022/04/02 12:28:48;;;;;;;3.08;1.40;;;;;;;7.31;33.49;100505.81;2065725;28;20830;-73
2022/04/02 12:29:53;;;;;;;5.22;1.20;;;;;;;7.25;33.63;100480.16;2074918;28;20277;-72
2022/04/02 12:31:27;;;;;;;2.70;1.30;;;;;;;7.23;34.63;100492.16;2082917;28;20272;-71
2022/04/02 12:33:25;;;;;;;2.33;1.30;;;;;;;7.39;34.11;100491.19;2083556;28;20417;-70
2022/04/02 12:34:30;;;;;;;2.22;1.20;;;;;;;7.33;33.73;100492.22;2059782;28;20813;-70
2022/04/02 12:35:34;;;;;;;3.30;1.20;;;;;;;7.29;34.20;100507.19;2060071;28;20292;-73
2022/04/02 12:36:43;;;;;;;2.55;1.42;;;;;;;7.27;34.94;100487.91;2068782;28;20291;-74
2022/04/02 12:37:51;;;;;;;7.28;1.30;;;;;;;7.37;35.22;100467.34;2069005;28;20288;-72
2022/04/02 12:39:19;;;;;;;3.90;1.50;;;;;;;7.35;34.39;100496.25;2069164;28;20284;-74
2022/04/02 12:40:26;;;;;;;1.80;1.25;;;;;;;7.34;34.44;100499.16;2060644;28;20347;-74
2022/04/02 12:41:30;;;;;;;2.63;1.20;;;;;;;7.17;35.14;100484.09;2060631;28;20304;-73
2022/04/02 12:42:37;;;;;;;3.47;1.23;;;;;;;7.17;35.16;100494.78;2066874;28;20421;-70
2022/04/02 12:43:40;;;;;;;2.00;1.10;;;;;;;7.27;35.33;100498.59;2052269;28;20277;-70
2022/04/02 12:44:44;;;;;;;1.40;1.20;;;;;;;7.37;35.74;100496.78;2062887;28;20289;-70
2022/04/02 12:45:46;;;;;;;1.70;1.13;;;;;;;7.38;35.45;100493.06;2048791;28;20289;-69
2022/04/02 12:46:52;;;;;;;1.95;1.20;;;;;;;7.34;35.44;100493.81;2058167;28;21123;-70
2022/04/02 12:48:04;;;;;;;2.87;1.00;;;;;;;7.49;35.00;100496.59;2060998;28;20269;-71
2022/04/02 12:49:07;;;;;;;1.77;1.20;;;;;;;7.42;35.38;100493.34;2066742;28;20287;-70
2022/04/02 12:50:13;;;;;;;1.67;1.00;;;;;;;7.30;35.18;100501.56;2059399;28;20289;-69
2022/04/02 12:51:18;;;;;;;1.77;1.10;;;;;;;7.18;35.44;100493.72;2052849;28;21063;-70
2022/04/02 12:52:21;;;;;;;2.65;1.40;;;;;;;7.28;35.50;100484.97;2061834;28;20277;-69
2022/04/02 12:53:33;;;;;;;4.55;1.00;;;;;;;7.42;35.25;100488.78;2067936;28;20883;-70
2022/04/02 12:54:36;;;;;;;2.83;1.13;;;;;;;7.11;35.20;100487.78;2060571;28;20288;-69
2022/04/02 12:55:46;;;;;;;2.37;1.17;;;;;;;6.99;35.66;100502.41;2059848;28;20792;-71
2022/04/02 12:56:50;;;;;;;2.90;1.10;;;;;;;7.11;35.47;100493.13;2068750;28;20273;-71
2022/04/02 12:58:03;;;;;;;7.15;1.05;;;;;;;7.18;35.36;100484.88;2068538;28;20281;-71
2022/04/02 12:59:18;;;;;;;5.10;1.20;;;;;;;7.45;35.29;100482.13;2065825;28;20287;-72
2022/04/02 13:00:28;;;;;;;4.63;1.10;;;;;;;7.42;35.68;100485.31;2074618;28;20260;-72
2022/04/02 13:01:33;;;;;;;1.77;0.90;;;;;;;7.23;35.48;100506.31;2066913;28;20288;-70
2022/04/02 13:02:44;;;;;;;2.63;1.00;;;;;;;7.06;35.24;100498.47;2068827;28;20314;-70
2022/04/02 13:04:08;;;;;;;3.88;1.10;;;;;;;7.04;34.73;100489.09;2068805;28;20288;-71
2022/04/02 13:05:14;;;;;;;2.20;1.30;;;;;;;6.79;35.67;100471.00;2082003;28;20772;-71
2022/04/02 13:06:22;;;;;;;1.80;1.30;;;;;;;6.71;36.28;100486.44;2066406;28;20747;-71
2022/04/02 13:07:27;;;;;;;1.50;0.90;;;;;;;6.84;36.16;100501.25;2059953;28;20265;-70
2022/04/02 13:08:30;;;;;;;6.03;1.20;;;;;;;6.96;35.67;100501.84;2066966;28;20276;-70
2022/04/02 13:09:35;;;;;;;2.70;1.07;;;;;;;7.10;35.51;100504.91;2067699;28;20304;-72
2022/04/02 13:10:45;;;;;;;4.87;0.93;;;;;;;7.07;35.33;100494.72;2068317;28;20697;-73
2022/04/02 13:11:55;;;;;;;4.25;1.10;;;;;;;6.85;34.68;100486.81;2068559;28;20909;-69
2022/04/02 13:13:03;;;;;;;2.30;1.10;;;;;;;6.70;35.65;100474.13;2067492;28;20520;-71
2022/04/02 13:14:24;;;;;;;;;;;;;;;6.66;36.09;100498.94;2066491;28;20288;-71
2022/04/02 13:15:31;;;;;;;2.80;0.97;;;;;;;6.55;35.98;100484.66;2057724;28;19909;-70
2022/04/02 13:16:40;;;;;;;2.90;1.10;;;;;;;6.62;35.58;100505.81;2075912;28;21119;-73
2022/04/02 13:20:28;;;;;;;1.90;1.00;;;;;;;6.60;35.85;100489.25;2083906;28;20274;-74
2022/04/02 13:20:47;;;;;;;2.70;1.00;;;;;;;6.58;35.21;100497.50;2065511;28;20292;-73
2022/04/02 13:22:01;;;;;;;2.13;0.97;;;;;;;6.75;35.13;100505.44;2063749;28;20792;-75
2022/04/02 13:23:07;;;;;;;2.70;1.07;;;;;;;6.72;35.54;100498.72;2072556;28;20290;-72
2022/04/02 13:24:46;;;;;;;2.20;1.27;;;;;;;6.62;35.55;100506.66;2059952;28;20298;-73
2022/04/02 13:26:02;;;;;;;4.63;1.23;;;;;;;6.70;34.98;100510.72;2055389;28;20293;-75
2022/04/02 13:27:15;;;;;;;2.22;0.90;;;;;;;6.96;35.41;100506.38;2061486;28;20276;-75
2022/04/02 13:28:34;;;;;;;4.17;1.30;;;;;;;7.06;34.77;100509.16;2068780;28;20034;-74
2022/04/02 13:29:53;;;;;;;2.60;1.00;;;;;;;7.06;36.31;100514.50;2060097;28;20327;-73
2022/04/02 13:31:02;;;;;;;2.47;1.20;;;;;;;7.04;35.18;100500.59;2068061;28;20299;-73
2022/04/02 13:32:14;;;;;;;2.40;1.20;;;;;;;7.08;34.97;100512.38;2065906;28;20809;-69
2022/04/02 13:33:35;;;;;;;3.90;1.13;;;;;;;7.19;37.46;100516.75;2072539;28;20300;-74
2022/04/02 13:34:43;;;;;;;2.77;1.13;;;;;;;7.50;34.72;100522.25;2081163;28;20275;-73
2022/04/02 13:35:54;;;;;;;3.40;1.10;;;;;;;7.49;34.34;100507.28;2073937;28;20298;-75
2022/04/02 13:37:41;;;;;;;3.07;1.20;;;;;;;7.44;34.75;100507.28;2068237;28;20288;-75
2022/04/02 13:39:20;;;;;;;4.23;1.63;;;;;;;7.53;35.22;100516.41;2075072;28;21273;-70
2022/04/02 13:40:24;;;;;;;;;;;;;;;7.29;36.20;100512.53;2066001;28;20284;-69
2022/04/02 13:41:52;;;;;;;2.73;1.27;;;;;;;7.17;36.53;100500.13;2061103;28;19985;-70
2022/04/02 13:43:01;;;;;;;5.47;1.50;;;;;;;6.79;36.91;100524.44;2068300;28;20315;-71
2022/04/02 13:44:05;;;;;;;4.90;1.17;;;;;;;6.87;36.92;100521.28;2063206;28;20934;-71
2022/04/02 13:45:11;;;;;;;3.67;1.47;;;;;;;6.83;36.60;100531.66;2070845;28;20320;-70
2022/04/02 13:46:24;;;;;;;1.40;1.00;;;;;;;6.61;37.17;100509.56;2053045;28;21143;-70
2022/04/02 13:47:33;;;;;;;5.93;1.57;;;;;;;6.66;37.87;100515.75;2063817;28;20273;-72
2022/04/02 13:48:54;;;;;;;2.70;1.20;;;;;;;6.65;37.68;100516.84;2079404;28;20628;-70
2022/04/02 13:50:01;;;;;;;3.27;1.33;;;;;;;6.61;38.09;100512.22;2075634;28;20771;-73
2022/04/02 13:51:11;;;;;;;3.80;1.57;;;;;;;6.62;38.69;100512.00;2061982;28;20285;-68
2022/04/02 13:52:23;;;;;;;2.20;1.30;;;;;;;6.71;38.79;100523.84;2057713;28;20285;-67
2022/04/02 13:53:38;;;;;;;2.33;1.43;;;;;;;6.67;38.63;100508.56;2064505;28;20304;-68
2022/04/02 13:54:56;;;;;;;3.67;1.25;;;;;;;6.61;38.46;100507.69;2064567;28;20280;-68
2022/04/02 13:56:09;;;;;;;1.80;1.17;;;;;;;6.67;38.27;100501.34;2078371;28;20078;-69
2022/04/02 13:57:20;;;;;;;2.70;1.43;;;;;;;6.79;38.34;100513.75;2070332;28;20283;-70
2022/04/02 13:58:32;;;;;;;9.53;1.93;;;;;;;7.19;37.42;100507.91;2057377;28;21103;-69
2022/04/02 13:59:56;;;;;;;4.10;1.40;;;;;;;7.37;37.85;100514.69;2064177;28;20289;-68
2022/04/02 14:01:05;;;;;;;3.93;1.80;;;;;;;7.64;36.85;100514.59;2058900;28;20624;-69
2022/04/02 14:02:15;;;;;;;7.53;1.67;;;;;;;7.62;36.06;100504.13;2071456;28;20295;-68
2022/04/02 14:03:21;;;;;;;5.27;1.47;;;;;;;7.61;36.20;100502.53;2072300;28;20272;-68
2022/04/02 14:04:37;;;;;;;3.73;1.13;;;;;;;7.74;35.49;100522.66;2075562;28;20323;-69
2022/04/02 14:05:43;;;;;;;5.57;1.20;;;;;;;7.54;35.23;100496.63;2073357;28;20295;-69
2022/04/02 14:06:55;;;;;;;3.80;1.33;;;;;;;7.49;35.48;100509.97;2071848;28;20307;-69
2022/04/02 14:08:06;;;;;;;5.77;1.37;;;;;;;7.35;35.03;100506.16;2064935;28;20304;-69
2022/04/02 14:09:12;;;;;;;2.87;1.10;;;;;;;7.43;34.61;100492.25;2078567;28;20764;-69
2022/04/02 14:10:19;;;;;;;3.80;1.20;;;;;;;7.22;34.75;100499.38;2077692;28;20356;-68
2022/04/02 14:11:35;;;;;;;1.10;1.00;;;;;;;7.21;34.32;100505.78;2063672;28;20285;-69
2022/04/02 14:12:41;;;;;;;2.60;1.17;;;;;;;7.22;34.36;100506.56;2062375;28;20285;-67
2022/04/02 14:14:08;;;;;;;4.33;1.57;;;;;;;7.32;34.27;100506.66;2054639;28;20290;-68
2022/04/02 14:15:19;;;;;;;5.10;1.40;;;;;;;7.42;34.83;100510.19;2051099;28;20270;-67
2022/04/02 14:16:30;;;;;;;3.43;1.60;;;;;;;7.27;35.04;100501.25;2056318;28;20293;-68
2022/04/02 14:17:41;;;;;;;7.40;2.03;;;;;;;7.11;36.45;100498.47;2062614;28;20290;-71
2022/04/02 14:18:46;;;;;;;3.97;1.63;;;;;;;7.08;36.86;100516.91;2065831;28;20281;-68
2022/04/02 14:19:57;;;;;;;1.87;1.20;;;;;;;6.97;37.57;100524.06;2055119;28;20298;-70
2022/04/02 14:21:30;;;;;;;1.83;0.93;;;;;;;6.85;38.78;100518.06;2057201;28;20801;-70
2022/04/02 14:22:59;;;;;;;1.70;1.07;;;;;;;7.02;38.16;100513.38;2069529;28;20299;-69
2022/04/02 14:24:28;;;;;;;6.50;1.13;;;;;;;7.18;38.22;100515.09;2079140;28;20284;-68
2022/04/02 14:26:08;;;;;;;8.32;1.10;;;;;;;7.06;38.25;100517.19;2072354;28;20289;-68
2022/04/02 14:27:42;;;;;;;5.67;1.60;;;;;;;7.11;37.50;100527.91;2079644;28;20520;-69
2022/04/02 14:29:01;;;;;;;5.77;1.60;;;;;;;7.16;37.67;100521.78;2064714;28;20725;-68
2022/04/02 14:30:20;;;;;;;5.97;1.30;;;;;;;7.28;36.66;100527.78;2059336;28;20875;-68
2022/04/02 14:32:16;;;;;;;4.03;1.10;;;;;;;7.17;36.24;100521.53;2071791;28;20657;-69
2022/04/02 14:33:24;;;;;;;1.97;1.07;;;;;;;7.05;35.87;100502.19;2064306;28;20301;-68
2022/04/02 14:34:41;;;;;;;1.23;0.93;;;;;;;7.03;35.38;100520.38;2064560;28;20692;-69
2022/04/02 14:36:14;;;;;;;4.57;1.17;;;;;;;7.00;36.18;100518.19;2071928;28;20660;-69
2022/04/02 14:37:38;;;;;;;3.97;1.20;;;;;;;7.04;35.33;100532.66;2066112;28;20405;-69
2022/04/02 14:38:48;;;;;;;9.43;1.40;;;;;;;6.93;34.52;100520.25;2067668;28;20300;-69
2022/04/02 14:40:12;;;;;;;2.17;0.90;;;;;;;6.69;34.84;100514.47;2081952;28;20284;-69
2022/04/02 14:41:27;;;;;;;2.80;1.20;;;;;;;6.84;35.69;100519.13;2081045;28;20291;-69
2022/04/02 14:42:57;;;;;;;2.60;0.90;;;;;;;7.03;35.77;100524.88;2065096;28;20718;-69
2022/04/02 14:44:23;;;;;;;1.87;1.10;;;;;;;7.07;35.86;100513.44;2060594;28;20285;-69
2022/04/02 14:45:41;;;;;;;2.17;0.80;;;;;;;6.70;36.35;100537.44;2065193;28;20289;-69
2022/04/02 14:46:45;;;;;;;;;;;;;;;6.56;36.14;100529.03;2077962;28;20283;-70
2022/04/02 14:48:02;;;;;;;5.50;1.00;;;;;;;6.46;36.44;100521.72;2081865;28;19913;-69
2022/04/02 14:49:41;;;;;;;6.37;0.80;;;;;;;6.50;35.99;100511.34;2073880;28;20288;-68
2022/04/02 14:50:58;;;;;;;4.03;1.40;;;;;;;6.58;36.14;100518.09;2073267;28;20284;-70
2022/04/02 14:52:38;;;;;;;2.60;0.97;;;;;;;6.43;36.78;100508.03;2083649;28;20295;-68
2022/04/02 14:54:19;;;;;;;2.60;1.17;;;;;;;6.52;36.46;100519.88;2075736;28;20297;-71
2022/04/02 14:55:43;;;;;;;3.03;1.00;;;;;;;6.58;35.85;100524.22;2073701;28;20756;-69
2022/04/02 14:56:53;;;;;;;2.50;1.00;;;;;;;6.72;35.46;100538.81;2073290;28;20300;-69
2022/04/02 14:58:23;;;;;;;3.70;1.20;;;;;;;6.58;34.71;100537.59;2073954;28;20295;-69
2022/04/02 14:59:28;;;;;;;5.17;0.77;;;;;;;6.45;35.36;100529.97;2081204;28;20295;-71
2022/04/02 15:00:58;;;;;;;1.93;0.80;;;;;;;6.28;36.55;100529.28;2064632;28;20296;-70
2022/04/02 15:02:33;;;;;;;1.00;0.77;;;;;;;6.43;36.40;100526.75;2066959;28;20296;-70
2022/04/02 15:04:13;;;;;;;0.70;0.70;;;;;;;6.34;37.66;100522.94;2071429;28;20292;-69
2022/04/02 15:05:31;;;;;;;3.53;0.80;;;;;;;6.16;37.56;100535.53;2065770;28;20284;-67
2022/04/02 15:06:52;;;;;;;3.10;1.00;;;;;;;6.36;37.61;100536.81;2065153;28;20293;-71
2022/04/02 15:08:17;;;;;;;1.03;0.80;;;;;;;6.32;37.83;100536.53;2064912;28;20348;-68
2022/04/02 15:09:40;;;;;;;3.53;1.13;;;;;;;6.31;38.16;100534.91;2064740;28;20289;-68
2022/04/02 15:10:54;;;;;;;3.07;0.87;;;;;;;6.39;37.37;100539.00;2065496;28;20282;-69
2022/04/02 15:12:05;;;;;;;4.97;1.00;;;;;;;6.19;37.63;100521.69;2066351;28;20289;-69
2022/04/02 15:13:08;;;;;;;2.27;0.80;;;;;;;6.30;37.50;100540.50;2073193;28;20284;-69
2022/04/02 15:14:25;;;;;;;1.97;0.87;;;;;;;6.16;37.55;100546.22;2057664;28;20781;-69
2022/04/02 15:15:39;;;;;;;2.10;0.80;;;;;;;6.07;38.67;100538.91;2064915;28;20675;-68
2022/04/02 15:16:44;;;;;;;2.73;0.97;;;;;;;6.16;38.76;100535.53;2065683;28;20641;-69
2022/04/02 15:17:58;;;;;;;1.70;0.97;;;;;;;6.25;38.74;100541.25;2066515;28;20762;-69
2022/04/02 15:19:27;;;;;;;2.27;0.70;;;;;;;6.30;39.55;100543.16;2063069;28;20289;-70
2022/04/02 15:20:30;;;;;;;1.30;0.87;;;;;;;6.31;38.74;100544.78;2076780;28;20656;-70
2022/04/02 15:21:37;;;;;;;3.37;0.97;;;;;;;6.25;39.62;100531.38;2057025;28;21039;-69
2022/04/02 15:22:42;;;;;;;2.90;1.03;;;;;;;6.26;39.40;100527.66;2068530;28;20424;-68
2022/04/02 15:23:58;;;;;;;1.60;0.90;;;;;;;6.46;39.27;100535.09;2078750;28;20292;-68
2022/04/02 15:25:22;;;;;;;1.40;0.80;;;;;;;6.47;39.15;100534.03;2066114;28;20285;-69
2022/04/02 15:26:28;;;;;;;2.50;1.10;;;;;;;6.42;38.91;100530.47;2068783;28;20295;-69
2022/04/02 15:27:55;;;;;;;2.20;0.77;;;;;;;6.29;39.30;100533.56;2057453;28;20302;-69
2022/04/02 15:29:08;;;;;;;1.75;0.70;;;;;;;6.27;38.84;100523.09;2081109;28;20292;-69
2022/04/02 15:30:19;;;;;;;1.60;0.90;;;;;;;6.23;39.30;100533.47;2072430;28;20061;-69
2022/04/02 15:31:31;;;;;;;1.00;0.90;;;;;;;6.31;39.07;100532.25;2059337;28;20282;-68
2022/04/02 15:32:41;;;;;;;1.80;0.90;;;;;;;6.43;39.68;100537.44;2072160;28;20042;-69
2022/04/02 15:33:54;;;;;;;1.90;1.07;;;;;;;6.50;38.81;100528.16;2068542;28;20285;-69
2022/04/02 15:35:30;;;;;;;2.60;1.00;;;;;;;6.46;39.76;100526.25;2074764;28;20284;-69
2022/04/02 15:37:05;;;;;;;4.23;1.17;;;;;;;6.52;40.74;100533.25;2075521;28;20843;-69
2022/04/02 15:38:15;;;;;;;5.33;1.03;;;;;;;6.52;40.87;100535.91;2065868;28;20281;-69
2022/04/02 15:39:31;;;;;;;2.42;1.10;;;;;;;6.39;41.44;100520.28;2065462;28;20785;-69
2022/04/02 15:40:51;;;;;;;3.33;1.00;;;;;;;6.54;41.37;100535.69;2070530;28;20472;-70
2022/04/02 15:41:55;;;;;;;1.17;0.95;;;;;;;6.54;40.75;100533.81;2067179;28;20831;-70
2022/04/02 15:43:03;;;;;;;5.50;0.90;;;;;;;6.38;41.89;100529.38;2064438;28;20055;-69
2022/04/02 15:44:08;;;;;;;2.80;0.97;;;;;;;6.41;41.20;100520.88;2072045;28;20678;-69
2022/04/02 15:45:17;;;;;;;3.80;1.00;;;;;;;6.47;40.95;100528.69;2073325;28;20273;-69
2022/04/02 15:46:26;;;;;;;3.83;1.73;;;;;;;6.59;40.39;100541.06;2065285;28;20634;-69
2022/04/02 15:47:37;;;;;;;;;;;;;;;6.41;40.03;100531.53;2066100;28;20277;-70
2022/04/02 15:49:11;;;;;;;16.38;1.83;;;;;;;6.47;39.64;100541.22;2069165;28;19920;-69
2022/04/02 15:50:24;;;;;;;6.57;1.10;;;;;;;6.60;39.56;100529.34;2072970;28;20037;-69
2022/04/02 15:51:27;;;;;;;8.10;1.13;;;;;;;6.64;39.07;100523.22;2072494;28;20737;-69
2022/04/02 15:52:35;;;;;;;9.37;1.00;;;;;;;6.61;38.68;100534.41;2072315;28;20301;-69
2022/04/02 15:53:37;;;;;;;9.73;0.90;;;;;;;6.53;39.07;100548.25;2064400;28;20669;-69
2022/04/02 15:54:52;;;;;;;4.27;1.00;;;;;;;6.50;39.92;100540.72;2056175;28;20286;-69
2022/04/02 15:56:01;;;;;;;7.67;0.90;;;;;;;6.43;39.58;100537.44;2054073;28;20813;-68
2022/04/02 15:57:02;;;;;;;6.83;1.10;;;;;;;6.29;39.09;100538.88;2072455;28;20296;-70
2022/04/02 15:58:09;;;;;;;2.17;1.10;;;;;;;6.42;38.98;100544.63;2064778;28;20899;-70
2022/04/02 15:59:12;;;;;;;4.07;1.00;;;;;;;6.47;38.24;100542.03;2080722;28;20287;-70
2022/04/02 16:00:13;;;;;;;3.70;1.03;;;;;;;6.41;38.54;100534.22;2072751;28;20748;-69
2022/04/02 16:01:37;;;;;;;1.87;0.90;;;;;;;6.30;38.54;100543.97;2071156;28;20624;-70
2022/04/02 16:02:46;;;;;;;2.20;0.97;;;;;;;6.38;38.52;100550.75;2067722;28;20284;-71
2022/04/02 16:03:51;;;;;;;0.87;0.80;;;;;;;6.50;38.12;100548.75;2070788;28;20284;-69
2022/04/02 16:05:14;;;;;;;3.00;0.87;;;;;;;6.32;37.67;100538.38;2066520;28;20305;-69
2022/04/02 16:06:26;;;;;;;2.53;0.97;;;;;;;6.20;37.08;100546.53;2065043;28;20300;-69
2022/04/02 16:07:30;;;;;;;1.45;0.80;;;;;;;6.06;38.21;100526.63;2057108;28;20289;-70
2022/04/02 16:08:32;;;;;;;1.60;0.80;;;;;;;6.16;37.76;100551.56;2065322;28;20046;-70
2022/04/02 16:09:35;;;;;;;2.10;0.87;;;;;;;6.19;37.32;100548.41;2061248;28;20765;-70
2022/04/02 16:10:41;;;;;;;2.30;0.93;;;;;;;6.34;37.89;100552.31;2069852;28;20289;-70
2022/04/02 16:11:44;;;;;;;1.53;0.87;;;;;;;6.30;38.54;100554.66;2065947;28;21044;-69
2022/04/02 16:12:52;;;;;;;2.60;0.90;;;;;;;6.35;38.55;100549.38;2069374;28;20304;-69
2022/04/02 16:14:03;;;;;;;1.90;1.08;;;;;;;6.30;39.23;100557.31;2075828;28;20327;-70
2022/04/02 16:15:20;;;;;;;1.50;1.10;;;;;;;6.33;40.54;100559.50;2080206;28;20045;-70
2022/04/02 16:16:24;;;;;;;2.93;1.30;;;;;;;6.32;41.01;100554.41;2080357;28;20283;-70
2022/04/02 16:17:30;;;;;;;1.87;0.90;;;;;;;6.33;40.63;100564.03;2069962;28;20284;-70
2022/04/02 16:18:37;;;;;;;2.37;1.00;;;;;;;6.27;40.70;100557.81;2053871;28;20309;-71